Weather reports worldwide

Advertisment
Nieuw Beerta aws, Netherlands (6286): temperature & dewpoint: 17.10.2020 07:00:00 - 23.10.2020 07:00:00 (CEST)Nieuw Beerta aws, Netherlands (6286): temperature 5cm & temperature -5cm: 17.10.2020 07:00:00 - 23.10.2020 07:00:00 (CEST)Nieuw Beerta aws, Netherlands (6286): temperature -20cm & temperature -100cm: 17.10.2020 07:00:00 - 23.10.2020 07:00:00 (CEST)Nieuw Beerta aws, Netherlands (6286): wind speed & gusts: 17.10.2020 07:00:00 - 23.10.2020 07:00:00 (CEST)Nieuw Beerta aws, Netherlands (6286): wind direction: 17.10.2020 07:00:00 - 23.10.2020 07:00:00 (CEST)Nieuw Beerta aws, Netherlands (6286): precipitation: 17.10.2020 07:00:00 - 23.10.2020 07:00:00 (CEST)
Date & Time tt [°C] td [°C] tt 5cm [°C] tt -5cm [°C] tt -20cm [°C] tt -100cm [°C] ff [km/h] ff [kn] fx [km/h] fx [kn] dd rr [mm]
23.10.2020 07:00:00 8,6 8,5 7,9 11,0 11,7 12,5 11 6 18 10 SSW 0,0
23.10.2020 06:00:00 9,4 9,2 8,6 11,1 11,8 12,5 11 6 18 10 SSW 0,0
23.10.2020 05:00:00 9,4 9,2 8,9 11,3 11,9 12,5 14 8 18 10 SSW 0,0
23.10.2020 04:00:00 9,4 9,1 8,7 11,4 11,9 12,5 14 8 22 12 SSW 0,0
23.10.2020 03:00:00 10,3 9,8 9,6 11,5 11,9 12,5 11 6 14 8 SSW 0,0
23.10.2020 02:00:00 10,5 10,0 9,8 11,7 12,0 12,5 14 8 18 10 SSW 0,0
23.10.2020 01:00:00 11,1 10,2 10,7 11,7 12,0 12,5 14 8 25 14 SSW 0,0
23.10.2020 00:00:00 12,1 10,6 11,3 11,8 12,1 12,5 14 8 25 14 SW 0,0
22.10.2020 23:00:00 11,8 10,3 10,8 11,9 12,2 12,6 18 10 29 16 SW 0,0
22.10.2020 22:00:00 12,0 10,2 11,0 12,1 12,2 12,6 22 12 29 16 SW 0,0
22.10.2020 21:00:00 11,5 10,0 10,8 12,3 12,2 12,6 18 10 25 14 SSW 0,0
22.10.2020 20:00:00 12,2 10,4 11,4 12,5 12,2 12,6 18 10 22 12 SSW 0,0
22.10.2020 19:00:00 12,6 10,5 11,9 12,8 12,2 12,6 18 10 32 18 SSW 0,0
22.10.2020 18:00:00 14,5 10,8 14,0 13,0 12,2 12,6 25 14 36 19 SW 0,0
22.10.2020 17:00:00 15,1 11,2 14,6 13,1 12,1 12,6 25 14 43 23 SSW 0,0
22.10.2020 16:00:00 15,9 10,6 15,5 13,1 12,0 12,6 25 14 40 21 SW 0,0
22.10.2020 15:00:00 16,3 10,8 15,8 13,0 11,9 12,6 25 14 50 27 SW 0,0
22.10.2020 14:00:00 15,8 11,1 15,7 12,8 11,9 12,6 40 21 50 27 SW 0,0
22.10.2020 13:00:00 15,4 11,6 15,5 12,5 11,8 12,6 29 16 47 25 SW 0,0
22.10.2020 12:00:00 15,1 11,9 14,9 12,2 11,8 12,6 29 16 47 25 SW 0,0
22.10.2020 11:00:00 14,7 11,8 14,4 11,9 11,8 12,6 29 16 43 23 SW 0,0
22.10.2020 10:00:00 14,0 12,2 13,6 11,8 11,8 12,6 29 16 40 21 SSW 0,0
22.10.2020 09:00:00 12,3 11,3 11,7 11,8 11,8 12,6 18 10 25 14 SSW 0,0
22.10.2020 08:00:00 12,7 11,2 12,0 11,9 11,9 12,6 22 12 40 21 SW 0,0
22.10.2020 07:00:00 13,1 11,6 12,4 12,1 11,9 12,6 25 14 36 19 SSW 0,0
22.10.2020 06:00:00 13,4 12,5 12,9 12,1 11,9 12,6 22 12 29 16 SSW 0,0
22.10.2020 05:00:00 12,6 11,9 12,0 12,2 11,9 12,6 18 10 32 18 SSW 0,0
22.10.2020 04:00:00 13,6 12,6 13,1 12,3 11,9 12,6 25 14 40 21 SW 0,0
22.10.2020 03:00:00 13,4 12,4 12,9 12,4 11,9 12,6 25 14 40 21 SW 0,0
22.10.2020 02:00:00 13,7 12,6 13,2 12,5 11,8 12,6 25 14 43 23 SW 0,0
22.10.2020 01:00:00 14,4 13,1 13,8 12,5 11,8 12,6 32 18 58 31 WSW 0,3
22.10.2020 00:00:00 14,5 13,3 14,1 12,6 11,7 12,6 36 19 83 45 SW 0,3
21.10.2020 23:00:00 17,1 12,2 16,3 12,5 11,7 12,6 50 27 79 43 SW 0,0
21.10.2020 22:00:00 17,9 12,4 17,2 12,5 11,6 12,6 54 29 72 39 SW 0,0
21.10.2020 21:00:00 17,7 13,4 16,8 12,5 11,6 12,6 36 19 61 33 SSW 0,0
21.10.2020 20:00:00 17,5 13,5 16,2 12,4 11,5 12,6 32 18 58 31 SSW 0,3
21.10.2020 19:00:00 17,9 13,2 17,1 12,3 11,4 12,6 40 21 54 29 S 0,0
21.10.2020 18:00:00 16,8 12,8 15,9 12,3 11,3 12,6 25 14 36 19 S 0,0
21.10.2020 17:00:00 16,2 12,3 15,6 12,2 11,3 12,6 29 16 43 23 S 0,0
21.10.2020 16:00:00 16,2 12,3 15,7 12,1 11,2 12,6 29 16 43 23 S 0,0
21.10.2020 15:00:00 14,5 12,6 14,0 11,8 11,1 12,7 22 12 36 19 SSE 0,0
21.10.2020 14:00:00 13,4 12,5 13,3 11,7 11,1 12,7 25 14 36 19 S 0,3
21.10.2020 13:00:00 12,9 12,2 12,8 11,5 11,0 12,7 25 14 36 19 S -
21.10.2020 12:00:00 12,7 11,9 12,6 11,4 11,0 12,7 25 14 36 19 SSE 0,1
21.10.2020 11:00:00 12,6 12,1 12,4 11,4 11,0 12,7 22 12 36 19 S 0,4
21.10.2020 10:00:00 12,6 12,2 12,4 11,3 10,9 12,7 18 10 25 14 SSE 0,9
21.10.2020 09:00:00 12,6 12,3 12,4 11,2 10,9 12,7 14 8 22 12 SSE 1,2
21.10.2020 08:00:00 12,6 12,4 12,4 11,2 10,8 12,7 14 8 22 12 SSE 0,9
21.10.2020 07:00:00 12,7 12,3 12,4 11,2 10,8 12,7 14 8 22 12 SSE 0,3
21.10.2020 06:00:00 13,0 12,1 12,6 11,1 10,8 12,7 14 8 22 12 S 0,0
21.10.2020 05:00:00 13,2 12,0 12,8 11,1 10,7 12,7 14 8 22 12 S 0,0
21.10.2020 04:00:00 13,2 12,1 12,9 11,0 10,7 12,7 14 8 22 12 S 0,0
21.10.2020 03:00:00 13,5 12,5 13,2 11,0 10,6 12,7 14 8 29 16 SSW 0,0
21.10.2020 02:00:00 13,7 12,5 13,3 10,9 10,6 12,7 22 12 29 16 SSW 0,0
21.10.2020 01:00:00 13,7 12,5 13,3 10,8 10,5 12,7 22 12 29 16 S 0,0
21.10.2020 00:00:00 13,4 12,4 12,9 10,7 10,5 12,7 18 10 32 18 S 0,0
20.10.2020 23:00:00 13,0 12,1 12,5 10,6 10,5 12,7 22 12 29 16 S 0,0
20.10.2020 22:00:00 12,7 11,7 12,2 10,5 10,4 12,7 22 12 29 16 S 0,0
20.10.2020 21:00:00 12,7 11,5 12,0 10,5 10,4 12,7 18 10 29 16 S 0,5
20.10.2020 20:00:00 12,4 11,2 11,8 10,4 10,4 12,7 22 12 29 16 S 0,1
20.10.2020 19:00:00 12,2 10,7 11,7 10,4 10,3 12,7 18 10 32 18 SSW 0,0
20.10.2020 18:00:00 12,0 10,4 11,5 10,3 10,3 12,7 22 12 29 16 S 0,0
20.10.2020 17:00:00 11,8 10,2 11,4 10,2 10,2 12,7 18 10 29 16 S 0,0
20.10.2020 16:00:00 11,2 9,8 10,8 10,1 10,2 12,7 18 10 25 14 S 0,0
20.10.2020 15:00:00 11,0 8,8 10,5 10,0 10,2 12,7 18 10 29 16 S 0,0
20.10.2020 14:00:00 11,0 7,9 10,7 9,9 10,1 12,7 22 12 29 16 S 0,0
20.10.2020 13:00:00 10,9 7,3 10,7 9,7 10,1 12,7 18 10 29 16 S 0,0
20.10.2020 12:00:00 10,0 6,6 9,8 9,5 10,1 12,7 22 12 32 18 S 0,0
20.10.2020 11:00:00 9,3 5,9 9,1 9,2 10,1 12,8 22 12 29 16 SSE 0,0
20.10.2020 10:00:00 7,3 4,9 6,8 9,1 10,2 12,8 18 10 25 14 SSE 0,0
20.10.2020 09:00:00 6,5 4,5 6,0 9,1 10,3 12,8 14 8 25 14 SSE 0,0
20.10.2020 08:00:00 6,5 4,3 6,1 9,2 10,3 12,8 14 8 29 16 SE 0,0
20.10.2020 07:00:00 6,9 4,4 6,3 9,3 10,4 12,8 22 12 29 16 SE 0,0
20.10.2020 06:00:00 6,8 4,8 6,3 9,4 10,4 12,8 18 10 22 12 ESE 0,0
20.10.2020 05:00:00 7,1 5,1 6,6 9,4 10,5 12,8 14 8 22 12 SE 0,0
20.10.2020 04:00:00 7,0 5,2 6,6 9,5 10,6 12,8 14 8 25 14 SE 0,0
20.10.2020 03:00:00 7,0 5,3 5,9 9,6 10,6 12,8 14 8 22 12 SE 0,0
20.10.2020 02:00:00 6,9 5,7 6,3 9,7 10,7 12,8 14 8 18 10 SE 0,0
20.10.2020 01:00:00 7,2 6,1 6,6 9,9 10,8 12,8 14 8 18 10 SE 0,0
20.10.2020 00:00:00 7,2 6,2 6,6 10,0 10,8 12,8 14 8 22 12 SE 0,0
19.10.2020 23:00:00 7,5 6,6 6,9 10,2 10,9 12,8 11 6 18 10 SE 0,0
19.10.2020 22:00:00 7,0 6,3 6,2 10,5 10,9 12,8 11 6 14 8 SE 0,0
19.10.2020 21:00:00 7,7 6,8 7,0 10,8 10,9 12,8 11 6 14 8 SSE 0,0
19.10.2020 20:00:00 9,8 8,0 9,2 11,0 10,9 12,8 7 4 18 10 SSE 0,0
19.10.2020 19:00:00 10,5 8,4 10,1 11,2 10,9 12,8 11 6 14 8 S 0,0
19.10.2020 18:00:00 10,9 8,6 10,6 11,3 10,8 12,8 11 6 18 10 S 0,0
19.10.2020 17:00:00 11,2 8,5 11,1 11,3 10,8 12,8 14 8 25 14 SSW 0,0
19.10.2020 16:00:00 11,4 8,7 11,3 11,3 10,7 12,8 14 8 22 12 SSW 0,0
19.10.2020 15:00:00 11,3 8,2 11,1 11,4 10,6 12,8 14 8 22 12 SSW 0,0
19.10.2020 14:00:00 11,8 8,3 12,1 11,1 10,5 12,8 14 8 22 12 SSW 0,0
19.10.2020 13:00:00 11,8 8,7 12,7 10,6 10,4 12,8 14 8 25 14 SSW 0,0
19.10.2020 12:00:00 10,0 8,9 9,9 10,2 10,4 12,8 14 8 25 14 SSW 0,0
19.10.2020 11:00:00 8,8 8,3 8,9 9,9 10,4 12,9 18 10 25 14 S 0,0
19.10.2020 10:00:00 7,9 7,7 8,0 9,7 10,5 12,9 18 10 22 12 SSW 0,0
19.10.2020 09:00:00 7,6 7,4 7,4 9,6 10,5 12,9 14 8 22 12 SW 0,0
19.10.2020 08:00:00 6,9 6,5 6,4 9,8 10,6 12,9 14 8 18 10 SSW 0,0
19.10.2020 07:00:00 7,7 7,4 7,3 9,8 10,6 12,9 14 8 22 12 SW 0,0
19.10.2020 06:00:00 7,8 7,4 7,4 9,9 10,7 12,9 14 8 22 12 SW 0,0
19.10.2020 05:00:00 7,8 7,2 7,1 10,0 10,7 12,9 14 8 18 10 SW 0,0
19.10.2020 04:00:00 8,1 7,4 7,8 10,1 10,8 12,9 11 6 14 8 WSW 0,0
19.10.2020 03:00:00 7,8 7,2 7,5 10,1 10,8 12,9 7 4 11 6 WSW 0,0
19.10.2020 02:00:00 7,1 6,8 6,9 10,3 10,8 12,9 11 6 18 10 SW 0,0
19.10.2020 01:00:00 8,0 7,4 7,6 10,4 10,9 12,9 7 4 14 8 SW 0,0
19.10.2020 00:00:00 8,4 7,6 8,1 10,5 10,9 12,9 11 6 14 8 SSW 0,0
18.10.2020 23:00:00 8,9 6,8 8,6 10,5 10,9 12,9 11 6 22 12 W 0,0
18.10.2020 22:00:00 8,8 7,3 8,4 10,6 11,0 12,9 11 6 14 8 WSW 0,0
18.10.2020 21:00:00 8,6 7,3 8,0 10,7 11,0 12,9 11 6 14 8 WSW 0,0
18.10.2020 20:00:00 7,9 6,5 7,4 11,0 11,0 12,9 11 6 18 10 WSW 0,0
18.10.2020 19:00:00 10,1 7,1 9,8 11,3 11,0 12,9 14 8 18 10 W 0,0
18.10.2020 18:00:00 10,3 7,1 10,1 11,5 10,9 12,9 11 6 22 12 W 0,0
18.10.2020 17:00:00 11,2 7,4 11,1 11,7 10,8 12,9 18 10 25 14 WNW 0,0
18.10.2020 16:00:00 12,0 7,6 11,9 11,7 10,7 12,9 18 10 25 14 WNW 0,0
18.10.2020 15:00:00 12,3 7,1 12,4 11,6 10,6 12,9 18 10 25 14 WNW 0,0
18.10.2020 14:00:00 12,2 7,4 12,4 11,3 10,5 13,0 22 12 29 16 WNW 0,0
18.10.2020 13:00:00 12,4 9,6 12,7 10,8 10,4 13,0 22 12 25 14 WNW 0,0
18.10.2020 12:00:00 10,5 9,4 10,5 10,4 10,3 13,0 18 10 25 14 W 0,2
18.10.2020 11:00:00 10,3 9,5 10,4 10,0 10,3 13,0 22 12 25 14 W 0,0
18.10.2020 10:00:00 9,8 9,3 9,8 9,8 10,3 13,0 18 10 22 12 W 0,0
18.10.2020 09:00:00 9,1 8,8 8,9 9,6 10,4 13,0 18 10 29 16 W 0,1
18.10.2020 08:00:00 8,4 8,1 8,2 9,6 10,4 13,0 18 10 25 14 WSW 0,2
18.10.2020 07:00:00 8,3 7,5 7,9 9,6 10,4 13,0 18 10 25 14 WSW 0,0
18.10.2020 06:00:00 7,7 7,0 7,3 9,6 10,5 13,0 22 12 29 16 WSW 0,0
18.10.2020 05:00:00 8,1 7,2 7,8 9,6 10,5 13,0 22 12 25 14 WSW 0,0
18.10.2020 04:00:00 7,9 7,1 7,3 9,6 10,5 13,0 14 8 22 12 W 0,0
18.10.2020 03:00:00 8,2 7,3 7,7 9,6 10,6 13,0 11 6 18 10 W 0,1
18.10.2020 02:00:00 7,7 7,3 7,2 9,6 10,7 13,0 11 6 14 8 WSW 0,0
18.10.2020 01:00:00 7,1 6,8 6,5 9,6 10,8 13,0 11 6 14 8 SW 0,0
18.10.2020 00:00:00 6,2 5,8 5,1 9,8 10,9 13,0 11 6 11 6 SW 0,0
17.10.2020 23:00:00 6,4 6,0 5,5 10,0 10,9 13,0 7 4 7 4 SW 0,0
17.10.2020 22:00:00 5,8 5,5 4,7 10,2 11,0 13,0 7 4 7 4 WSW 0,0
17.10.2020 21:00:00 6,3 6,1 4,8 10,7 11,1 13,0 4 2 7 4 WSW 0,0
17.10.2020 20:00:00 7,4 6,6 6,4 11,2 11,1 13,1 4 2 7 4 WNW 0,0
17.10.2020 19:00:00 9,5 7,3 8,5 11,7 11,0 13,1 7 4 7 4 NW 0,0
17.10.2020 18:00:00 11,4 7,5 11,0 12,0 10,9 13,1 7 4 11 6 N 0,0
17.10.2020 17:00:00 11,9 7,1 11,7 12,3 10,7 13,1 11 6 18 10 N 0,0
17.10.2020 16:00:00 13,5 6,1 15,0 12,0 10,5 13,1 7 4 14 8 NNW 0,0
17.10.2020 15:00:00 13,0 6,4 14,0 11,6 10,4 13,1 7 4 11 6 WNW 0,0
17.10.2020 14:00:00 13,1 6,5 14,3 11,2 10,3 13,1 4 2 11 6 SSW 0,0
17.10.2020 13:00:00 11,6 6,6 11,5 10,6 10,2 13,1 7 4 11 6 NNW 0,0
17.10.2020 12:00:00 11,4 6,9 11,9 10,2 10,1 13,1 4 2 7 4 WNW 0,0
17.10.2020 11:00:00 11,0 8,3 11,7 9,6 10,1 13,1 4 2 7 4 NNW 0,0
17.10.2020 10:00:00 8,5 7,4 8,1 9,2 10,1 13,1 4 2 7 4 W 0,0
17.10.2020 09:00:00 5,6 5,5 4,9 9,1 10,2 13,1 4 2 11 6 SE 0,0
17.10.2020 08:00:00 6,2 5,9 5,6 9,3 10,2 13,1 4 2 7 4 SSW 0,0
17.10.2020 07:00:00 6,5 6,2 6,3 9,3 10,2 13,1 4 2 7 4 S 0,0

tt = temperature
td = dewpoint
tt 5cm = temperature 5cm
tt -5cm = temperature -5cm
tt -20cm = temperature -20cm
tt -100cm = temperature -100cm
ff = wind speed
fx = gusts
dd = wind direction
rr = precipitation

Next stations